createdAt,value
2023-04-09T00:00:49.190Z,50.65
2023-04-09T00:03:17.152Z,50.10
2023-04-09T00:05:44.795Z,49.81
2023-04-09T00:08:12.654Z,49.76
2023-04-09T00:10:40.461Z,49.93
2023-04-09T00:13:07.912Z,50.56
2023-04-09T00:15:35.370Z,50.40
2023-04-09T00:18:03.492Z,50.91
2023-04-09T00:20:30.918Z,50.95
2023-04-09T00:22:58.610Z,51.39
2023-04-09T00:25:26.299Z,51.15
2023-04-09T00:27:53.699Z,51.34
2023-04-09T00:30:21.581Z,51.57
2023-04-09T00:32:49.375Z,51.79
2023-04-09T00:35:17.610Z,51.75
2023-04-09T00:37:45.096Z,51.76
2023-04-09T00:40:12.797Z,51.62
2023-04-09T00:42:40.420Z,51.48
2023-04-09T00:45:08.277Z,51.39
2023-04-09T00:47:36.205Z,51.50
2023-04-09T00:50:04.531Z,51.70
2023-04-09T00:52:33.045Z,51.78
2023-04-09T00:55:01.445Z,51.72
2023-04-09T00:57:28.976Z,52.03
2023-04-09T00:59:56.499Z,51.66
2023-04-09T01:02:24.599Z,51.91
2023-04-09T01:04:52.358Z,51.41
2023-04-09T01:07:32.112Z,51.14
2023-04-09T01:10:24.759Z,51.30
2023-04-09T01:13:20.415Z,51.64
2023-04-09T01:15:56.455Z,51.93
2023-04-09T01:18:44.644Z,52.05
2023-04-09T01:21:15.380Z,52.17
2023-04-09T01:23:56.782Z,51.67
2023-04-09T01:26:48.117Z,51.62
2023-04-09T01:29:16.228Z,52.15
2023-04-09T01:31:45.309Z,52.27
2023-04-09T01:34:14.177Z,52.24
2023-04-09T01:36:43.204Z,52.43
2023-04-09T01:39:11.015Z,52.29
2023-04-09T01:41:39.709Z,51.84
2023-04-09T01:44:07.987Z,51.67
2023-04-09T01:46:37.862Z,51.66
2023-04-09T01:49:05.804Z,51.97
2023-04-09T01:51:33.676Z,51.72
2023-04-09T01:54:01.382Z,51.40
2023-04-09T01:56:28.733Z,51.42
2023-04-09T01:58:56.120Z,51.18
2023-04-09T02:01:28.154Z,51.53
2023-04-09T02:04:03.050Z,51.63
2023-04-09T02:06:56.160Z,50.82
2023-04-09T02:09:24.749Z,50.90
2023-04-09T02:11:53.002Z,51.46
2023-04-09T02:14:21.233Z,51.10
2023-04-09T02:16:49.255Z,51.07
2023-04-09T02:19:16.665Z,50.83
2023-04-09T02:21:44.478Z,50.87
2023-04-09T02:24:12.205Z,51.14
2023-04-09T02:26:39.683Z,51.42
2023-04-09T02:29:07.318Z,51.01
2023-04-09T02:31:35.192Z,50.79
2023-04-09T02:34:02.594Z,50.64
2023-04-09T02:36:29.973Z,50.81
2023-04-09T02:38:57.607Z,50.31
2023-04-09T02:41:25.029Z,50.42
2023-04-09T02:43:52.457Z,50.18
2023-04-09T02:46:20.299Z,50.20
2023-04-09T02:48:48.453Z,50.57
2023-04-09T02:51:15.957Z,50.79
2023-04-09T02:53:43.601Z,50.68
2023-04-09T02:56:11.172Z,51.27
2023-04-09T02:58:38.632Z,49.80
2023-04-09T03:01:06.444Z,49.48
2023-04-09T03:03:34.036Z,49.56
2023-04-09T03:06:01.567Z,49.50
2023-04-09T03:08:29.243Z,50.20
2023-04-09T03:10:56.682Z,50.15
2023-04-09T03:13:24.198Z,50.67
2023-04-09T03:15:53.188Z,50.58
2023-04-09T03:18:20.872Z,50.71
2023-04-09T03:20:48.313Z,50.27
2023-04-09T03:23:16.176Z,50.05
2023-04-09T03:25:43.749Z,49.56
2023-04-09T03:28:11.714Z,48.84
2023-04-09T03:30:40.068Z,48.60
2023-04-09T03:33:07.533Z,48.34
2023-04-09T03:35:35.560Z,48.16
2023-04-09T03:38:03.598Z,48.12
2023-04-09T03:40:31.096Z,48.59
2023-04-09T03:42:58.451Z,49.35
2023-04-09T03:45:26.179Z,49.64
2023-04-09T03:47:54.796Z,49.65
2023-04-09T03:50:24.190Z,49.74
2023-04-09T03:52:52.097Z,49.78
2023-04-09T03:55:19.606Z,50.26
2023-04-09T03:57:48.478Z,50.56
2023-04-09T04:00:16.574Z,50.47
2023-04-09T04:02:51.876Z,50.70
2023-04-09T04:05:23.281Z,51.27
2023-04-09T04:07:51.569Z,51.57
2023-04-09T04:10:20.623Z,51.41
2023-04-09T04:12:48.379Z,51.27
2023-04-09T04:15:16.331Z,51.58
2023-04-09T04:17:44.178Z,51.82
2023-04-09T04:20:14.045Z,51.09
2023-04-09T04:22:43.875Z,51.04
2023-04-09T04:25:11.360Z,51.10
2023-04-09T04:27:42.312Z,51.03
2023-04-09T04:30:10.518Z,50.61
2023-04-09T04:32:38.225Z,50.88
2023-04-09T04:35:06.847Z,50.12
2023-04-09T04:37:34.317Z,50.49
2023-04-09T04:40:02.877Z,50.61
2023-04-09T04:42:32.057Z,50.55
2023-04-09T04:45:00.548Z,50.09
2023-04-09T04:47:29.234Z,49.57
2023-04-09T04:49:59.097Z,49.03
2023-04-09T04:52:26.510Z,49.65
2023-04-09T04:54:54.121Z,49.92
2023-04-09T04:57:22.080Z,50.55
2023-04-09T04:59:49.821Z,49.75
2023-04-09T05:02:17.811Z,49.49
2023-04-09T05:04:46.512Z,49.79
2023-04-09T05:07:14.492Z,50.62
2023-04-09T05:09:44.370Z,50.53
2023-04-09T05:12:12.328Z,51.20
2023-04-09T05:14:39.794Z,51.11
2023-04-09T05:17:07.253Z,51.00
2023-04-09T05:19:38.097Z,50.64
2023-04-09T05:22:05.564Z,50.76
2023-04-09T05:24:32.989Z,50.76
2023-04-09T05:27:01.357Z,51.08
2023-04-09T05:29:28.894Z,51.19
2023-04-09T05:31:56.416Z,51.55
2023-04-09T05:34:24.961Z,51.41
2023-04-09T05:36:53.200Z,51.20
2023-04-09T05:39:21.411Z,51.28
2023-04-09T05:41:49.147Z,50.91
2023-04-09T05:44:17.839Z,50.93
2023-04-09T05:46:45.308Z,51.52
2023-04-09T05:49:14.328Z,51.61
2023-04-09T05:51:43.283Z,51.76
2023-04-09T05:54:11.377Z,51.64
2023-04-09T05:56:39.188Z,51.05
2023-04-09T05:59:06.686Z,50.84
2023-04-09T06:01:34.126Z,50.91
2023-04-09T06:04:04.731Z,51.04
2023-04-09T06:06:32.693Z,51.29
2023-04-09T06:09:00.690Z,51.50
2023-04-09T06:11:28.364Z,51.33
2023-04-09T06:13:55.857Z,51.41
2023-04-09T06:16:23.421Z,50.77
2023-04-09T06:18:54.483Z,50.52
2023-04-09T06:21:21.858Z,50.38
2023-04-09T06:23:49.365Z,50.28
2023-04-09T06:26:17.681Z,50.44
2023-04-09T06:28:45.113Z,50.69
2023-04-09T06:31:12.837Z,51.42
2023-04-09T06:33:40.579Z,51.95
2023-04-09T06:36:08.124Z,52.12
2023-04-09T06:38:35.654Z,50.98
2023-04-09T06:41:03.741Z,51.80
2023-04-09T06:43:31.327Z,51.20
2023-04-09T06:45:58.813Z,51.32
2023-04-09T06:48:26.514Z,51.44
2023-04-09T06:50:53.938Z,50.69
2023-04-09T06:53:21.501Z,50.49
2023-04-09T06:55:49.331Z,50.69
2023-04-09T06:58:16.979Z,50.54
2023-04-09T07:00:44.382Z,50.49
2023-04-09T07:03:12.201Z,50.68
2023-04-09T07:05:39.648Z,50.29
2023-04-09T07:08:07.284Z,50.04
2023-04-09T07:10:35.295Z,50.51
2023-04-09T07:13:03.302Z,49.77
2023-04-09T07:15:31.025Z,48.80
2023-04-09T07:17:58.797Z,47.69
2023-04-09T07:20:26.411Z,46.98
2023-04-09T07:22:53.789Z,47.77
2023-04-09T07:25:21.694Z,47.82
2023-04-09T07:27:49.832Z,48.02
2023-04-09T07:30:17.206Z,47.00
2023-04-09T07:32:44.889Z,47.10
2023-04-09T07:35:12.503Z,47.23
2023-04-09T07:37:39.945Z,47.25
2023-04-09T07:40:08.441Z,47.93
2023-04-09T07:42:38.270Z,47.07
2023-04-09T07:45:06.981Z,47.23
2023-04-09T07:47:34.641Z,46.48
2023-04-09T07:50:02.094Z,46.40
2023-04-09T07:52:29.929Z,48.64
2023-04-09T07:54:57.940Z,48.35
2023-04-09T07:57:25.375Z,48.49
2023-04-09T07:59:53.573Z,47.18
2023-04-09T08:02:21.436Z,47.48
2023-04-09T08:04:49.329Z,48.06
2023-04-09T08:07:16.870Z,46.34
2023-04-09T08:09:44.325Z,46.88
2023-04-09T08:12:12.042Z,47.79
2023-04-09T08:14:39.411Z,45.95
2023-04-09T08:17:06.896Z,46.04
2023-04-09T08:19:34.585Z,44.67
2023-04-09T08:22:02.146Z,44.25
2023-04-09T08:24:29.570Z,45.57
2023-04-09T08:26:57.786Z,45.69
2023-04-09T08:29:25.159Z,45.38
2023-04-09T08:31:52.626Z,45.10
2023-04-09T08:34:22.120Z,45.04
2023-04-09T08:36:49.972Z,45.29
2023-04-09T08:39:20.822Z,45.10
2023-04-09T08:41:48.576Z,47.10
2023-04-09T08:44:16.722Z,46.01
2023-04-09T08:46:44.805Z,46.61
2023-04-09T08:49:12.952Z,45.47
2023-04-09T08:51:46.241Z,44.82
2023-04-09T08:54:19.193Z,44.23
2023-04-09T08:56:47.338Z,44.57
2023-04-09T08:59:17.205Z,45.49
2023-04-09T09:01:46.742Z,45.97
2023-04-09T09:04:14.290Z,45.47
2023-04-09T09:06:42.149Z,46.36
2023-04-09T09:09:11.347Z,46.58
2023-04-09T09:11:40.923Z,46.43
2023-04-09T09:14:09.406Z,45.11
2023-04-09T09:16:45.316Z,44.51
2023-04-09T09:19:25.067Z,43.88
2023-04-09T09:22:00.739Z,42.97
2023-04-09T09:24:28.814Z,44.85
2023-04-09T09:26:57.244Z,43.45
2023-04-09T09:29:25.298Z,44.73
2023-04-09T09:31:54.238Z,42.50
2023-04-09T09:34:24.932Z,42.35
2023-04-09T09:36:52.697Z,43.25
2023-04-09T09:39:22.130Z,42.63
2023-04-09T09:42:07.662Z,42.60
2023-04-09T09:44:35.853Z,44.21
2023-04-09T09:47:04.152Z,42.94
2023-04-09T09:49:31.589Z,41.02
2023-04-09T09:52:00.685Z,42.38
2023-04-09T09:54:31.975Z,41.49
2023-04-09T09:57:02.134Z,42.49
2023-04-09T09:59:32.284Z,43.10
2023-04-09T10:02:04.176Z,43.00
2023-04-09T10:04:38.156Z,43.42
2023-04-09T10:07:07.315Z,43.00
2023-04-09T10:09:35.941Z,45.40
2023-04-09T10:12:05.057Z,44.17
2023-04-09T10:14:33.431Z,45.00
2023-04-09T10:17:02.085Z,45.67
2023-04-09T10:19:30.854Z,45.54
2023-04-09T10:22:11.877Z,45.68
2023-04-09T10:24:40.950Z,45.90
2023-04-09T10:27:15.655Z,44.08
2023-04-09T10:29:48.888Z,43.53
2023-04-09T10:32:26.485Z,43.97
2023-04-09T10:34:59.337Z,43.05
2023-04-09T10:37:28.083Z,43.39
2023-04-09T10:39:56.587Z,43.87
2023-04-09T10:42:29.570Z,45.01
2023-04-09T10:45:06.901Z,42.86
2023-04-09T10:47:36.636Z,43.61
2023-04-09T10:50:17.041Z,43.38
2023-04-09T10:52:44.759Z,43.26
2023-04-09T10:55:38.300Z,42.96
2023-04-09T10:58:12.316Z,41.74
2023-04-09T11:00:42.362Z,41.37
2023-04-09T11:03:20.824Z,42.16
2023-04-09T11:06:11.500Z,43.72
2023-04-09T11:08:39.156Z,43.38
2023-04-09T11:11:06.944Z,45.13
2023-04-09T11:13:34.634Z,43.65
2023-04-09T11:16:06.869Z,44.32
2023-04-09T11:18:35.590Z,44.83
2023-04-09T11:21:06.864Z,44.08
2023-04-09T11:23:34.575Z,43.63
2023-04-09T11:26:02.887Z,42.90
2023-04-09T11:28:30.335Z,43.36
2023-04-09T11:30:57.733Z,43.81
2023-04-09T11:33:32.507Z,43.33
2023-04-09T11:35:59.981Z,41.70
2023-04-09T11:38:27.689Z,40.99
2023-04-09T11:40:57.471Z,41.55
2023-04-09T11:43:24.997Z,41.45
2023-04-09T11:45:53.230Z,43.31
2023-04-09T11:48:23.361Z,42.64
2023-04-09T11:50:50.810Z,41.59
2023-04-09T11:53:23.033Z,41.96
2023-04-09T11:55:52.104Z,40.27
2023-04-09T11:58:24.615Z,41.10
2023-04-09T12:00:58.417Z,40.54
2023-04-09T12:03:29.789Z,39.39
2023-04-09T12:06:00.693Z,41.65
2023-04-09T12:08:28.460Z,40.59
2023-04-09T12:10:56.133Z,41.09
2023-04-09T12:13:32.751Z,41.14
2023-04-09T12:16:01.085Z,42.02
2023-04-09T12:18:28.579Z,40.86
2023-04-09T12:20:55.942Z,40.03
2023-04-09T12:23:23.734Z,40.52
2023-04-09T12:25:51.143Z,41.28
2023-04-09T12:28:19.006Z,40.40
2023-04-09T12:30:48.261Z,41.65
2023-04-09T12:33:15.761Z,40.81
2023-04-09T12:35:43.319Z,40.41
2023-04-09T12:38:11.301Z,39.03
2023-04-09T12:40:38.948Z,40.49
2023-04-09T12:43:06.359Z,41.00
2023-04-09T12:45:34.118Z,41.13
2023-04-09T12:48:01.657Z,42.09
2023-04-09T12:50:29.126Z,42.14
2023-04-09T12:52:56.831Z,41.65
2023-04-09T12:55:24.327Z,41.76
2023-04-09T12:57:51.905Z,40.99
2023-04-09T13:00:19.700Z,42.69
2023-04-09T13:02:47.241Z,42.51
2023-04-09T13:05:14.736Z,41.59
2023-04-09T13:07:43.594Z,41.75
2023-04-09T13:10:11.189Z,42.17
2023-04-09T13:12:38.636Z,42.86
2023-04-09T13:15:07.164Z,40.81
2023-04-09T13:17:34.734Z,40.15
2023-04-09T13:20:02.263Z,42.73
2023-04-09T13:22:30.093Z,42.11
2023-04-09T13:24:57.771Z,41.57
2023-04-09T13:27:25.500Z,40.60
2023-04-09T13:29:53.163Z,40.11
2023-04-09T13:32:24.403Z,39.62
2023-04-09T13:34:53.718Z,40.36
2023-04-09T13:37:21.416Z,39.90
2023-04-09T13:39:49.765Z,39.45
2023-04-09T13:42:17.666Z,39.36
2023-04-09T13:44:45.638Z,38.45
2023-04-09T13:47:14.360Z,38.47
2023-04-09T13:49:42.736Z,38.20
2023-04-09T13:52:10.727Z,37.48
2023-04-09T13:54:38.107Z,38.39
2023-04-09T13:57:05.533Z,37.53
2023-04-09T13:59:33.203Z,38.23
2023-04-09T14:02:00.794Z,38.26
2023-04-09T14:04:28.594Z,38.53
2023-04-09T14:06:57.439Z,38.34
2023-04-09T14:09:25.009Z,37.13
2023-04-09T14:11:54.770Z,37.81
2023-04-09T14:14:22.175Z,36.15
2023-04-09T14:16:50.448Z,37.24
2023-04-09T14:19:18.245Z,37.00
2023-04-09T14:21:45.610Z,36.66
2023-04-09T14:24:13.043Z,36.63
2023-04-09T14:26:40.886Z,36.30
2023-04-09T14:29:08.408Z,37.43
2023-04-09T14:31:35.878Z,36.66
2023-04-09T14:34:03.619Z,37.43
2023-04-09T14:36:31.648Z,37.06
2023-04-09T14:39:00.149Z,38.80
2023-04-09T14:41:28.127Z,37.33
2023-04-09T14:43:55.687Z,37.32
2023-04-09T14:46:23.138Z,36.81
2023-04-09T14:48:51.056Z,36.68
2023-04-09T14:51:18.665Z,36.31
2023-04-09T14:53:46.453Z,36.43
2023-04-09T14:56:14.207Z,36.66
2023-04-09T14:58:41.601Z,35.95
2023-04-09T15:01:09.113Z,36.10
2023-04-09T15:03:37.000Z,35.66
2023-04-09T15:06:04.806Z,35.76
2023-04-09T15:08:32.234Z,36.73
2023-04-09T15:10:59.890Z,36.17
2023-04-09T15:13:27.328Z,35.59
2023-04-09T15:15:54.839Z,36.08
2023-04-09T15:18:22.581Z,35.69
2023-04-09T15:20:50.756Z,35.57
2023-04-09T15:23:18.232Z,36.47
2023-04-09T15:25:46.015Z,36.32
2023-04-09T15:28:14.514Z,36.53
2023-04-09T15:30:42.069Z,36.85
2023-04-09T15:33:09.737Z,36.85
2023-04-09T15:35:37.856Z,36.54
2023-04-09T15:38:05.397Z,36.89
2023-04-09T15:40:33.151Z,37.02
2023-04-09T15:43:00.650Z,36.88
2023-04-09T15:45:28.129Z,37.07
2023-04-09T15:47:55.839Z,36.68
2023-04-09T15:50:23.371Z,36.87
2023-04-09T15:52:50.750Z,36.74
2023-04-09T15:55:18.553Z,36.49
2023-04-09T15:57:49.277Z,36.45
2023-04-09T16:00:16.837Z,37.05
2023-04-09T16:02:44.558Z,36.95
2023-04-09T16:05:12.181Z,37.02
2023-04-09T16:07:39.826Z,36.73
2023-04-09T16:10:08.247Z,37.76
2023-04-09T16:12:35.823Z,38.09
2023-04-09T16:15:03.432Z,37.63
2023-04-09T16:17:31.145Z,38.28
2023-04-09T16:19:58.660Z,38.98
2023-04-09T16:22:26.134Z,38.74
2023-04-09T16:24:53.846Z,38.78
2023-04-09T16:27:21.951Z,38.88
2023-04-09T16:29:49.477Z,38.76
2023-04-09T16:32:17.373Z,38.26
2023-04-09T16:34:44.853Z,38.90
2023-04-09T16:37:12.306Z,39.76
2023-04-09T16:39:40.133Z,40.06
2023-04-09T16:42:07.704Z,40.17
2023-04-09T16:44:35.766Z,39.61
2023-04-09T16:47:05.218Z,39.96
2023-04-09T16:49:32.725Z,39.61
2023-04-09T16:52:00.238Z,39.82
2023-04-09T16:54:28.150Z,39.32
2023-04-09T16:56:57.284Z,39.01
2023-04-09T16:59:25.068Z,40.89
2023-04-09T17:01:52.911Z,40.18
2023-04-09T17:04:21.288Z,40.18
2023-04-09T17:06:49.762Z,40.73
2023-04-09T17:09:17.547Z,39.83
2023-04-09T17:11:44.919Z,39.71
2023-04-09T17:14:12.326Z,40.21
2023-04-09T17:16:40.084Z,41.62
2023-04-09T17:19:08.882Z,41.00
2023-04-09T17:21:36.440Z,40.63
2023-04-09T17:24:04.291Z,40.19
2023-04-09T17:26:31.749Z,40.09
2023-04-09T17:28:59.361Z,40.50
2023-04-09T17:31:27.908Z,40.77
2023-04-09T17:33:55.896Z,40.87
2023-04-09T17:36:23.348Z,41.11
2023-04-09T17:38:53.221Z,41.12
2023-04-09T17:41:20.718Z,41.06
2023-04-09T17:43:48.238Z,41.65
2023-04-09T17:46:16.994Z,41.73
2023-04-09T17:48:44.434Z,41.74
2023-04-09T17:51:16.522Z,42.01
2023-04-09T17:53:44.392Z,41.90
2023-04-09T17:56:18.136Z,41.63
2023-04-09T17:58:46.905Z,41.97
2023-04-09T18:01:14.789Z,42.23
2023-04-09T18:03:43.186Z,42.04
2023-04-09T18:06:11.182Z,42.42
2023-04-09T18:08:38.612Z,42.79
2023-04-09T18:11:12.857Z,42.55
2023-04-09T18:13:40.878Z,42.34
2023-04-09T18:16:10.635Z,42.10
2023-04-09T18:18:38.604Z,42.47
2023-04-09T18:21:06.399Z,43.11
2023-04-09T18:23:34.370Z,43.22
2023-04-09T18:26:01.918Z,42.95
2023-04-09T18:28:29.384Z,43.06
2023-04-09T18:30:57.810Z,42.90
2023-04-09T18:33:25.769Z,43.03
2023-04-09T18:35:53.265Z,42.86
2023-04-09T18:38:21.660Z,42.95
2023-04-09T18:40:49.098Z,43.33
2023-04-09T18:43:16.524Z,44.67
2023-04-09T18:45:44.225Z,44.71
2023-04-09T18:48:11.835Z,44.78
2023-04-09T18:50:39.238Z,44.62
2023-04-09T18:53:07.715Z,45.29
2023-04-09T18:55:38.464Z,44.90
2023-04-09T18:58:12.542Z,44.87
2023-04-09T19:00:40.487Z,44.31
2023-04-09T19:03:08.755Z,45.50
2023-04-09T19:05:36.618Z,45.49
2023-04-09T19:08:06.799Z,45.85
2023-04-09T19:10:34.285Z,45.76
2023-04-09T19:13:02.212Z,45.12
2023-04-09T19:15:29.955Z,45.48
2023-04-09T19:17:57.705Z,46.06
2023-04-09T19:20:25.159Z,45.92
2023-04-09T19:22:57.421Z,45.99
2023-04-09T19:25:24.916Z,46.28
2023-04-09T19:27:54.227Z,46.71
2023-04-09T19:30:21.746Z,46.38
2023-04-09T19:32:49.306Z,46.29
2023-04-09T19:35:17.113Z,46.81
2023-04-09T19:37:44.950Z,46.44
2023-04-09T19:40:16.993Z,45.99
2023-04-09T19:42:44.688Z,46.90
2023-04-09T19:45:12.415Z,46.76
2023-04-09T19:47:39.848Z,46.98
2023-04-09T19:50:07.759Z,46.72
2023-04-09T19:52:35.164Z,46.68
2023-04-09T19:55:04.398Z,46.82
2023-04-09T19:57:32.101Z,46.73
2023-04-09T19:59:59.488Z,47.07
2023-04-09T20:02:27.110Z,46.60
2023-04-09T20:04:54.870Z,46.39
2023-04-09T20:07:22.399Z,46.40
2023-04-09T20:09:49.876Z,46.00
2023-04-09T20:12:17.669Z,46.25
2023-04-09T20:14:45.900Z,46.08
2023-04-09T20:17:13.544Z,46.10
2023-04-09T20:19:41.224Z,46.05
2023-04-09T20:22:08.646Z,46.33
2023-04-09T20:24:36.892Z,46.29
2023-04-09T20:27:04.765Z,46.58
2023-04-09T20:29:32.161Z,45.85
2023-04-09T20:31:59.593Z,45.84
2023-04-09T20:34:27.584Z,45.78
2023-04-09T20:36:55.568Z,46.38
2023-04-09T20:39:26.577Z,45.39
2023-04-09T20:41:55.104Z,45.73
2023-04-09T20:44:24.452Z,46.00
2023-04-09T20:46:51.986Z,46.36
2023-04-09T20:49:19.748Z,45.99
2023-04-09T20:51:47.623Z,44.59
2023-04-09T20:54:17.963Z,44.26
2023-04-09T20:56:45.704Z,44.74
2023-04-09T20:59:13.101Z,44.54
2023-04-09T21:01:40.944Z,44.61
2023-04-09T21:04:08.954Z,44.63
2023-04-09T21:06:36.596Z,44.68
2023-04-09T21:09:04.285Z,44.85
2023-04-09T21:11:31.988Z,44.78
2023-04-09T21:13:59.659Z,45.16
2023-04-09T21:16:28.543Z,45.35
2023-04-09T21:18:56.511Z,45.20
2023-04-09T21:21:24.174Z,45.60
2023-04-09T21:23:51.568Z,45.56
2023-04-09T21:26:19.262Z,45.38
2023-04-09T21:28:50.354Z,45.01
2023-04-09T21:31:18.056Z,45.08
2023-04-09T21:33:45.758Z,45.45
2023-04-09T21:36:13.322Z,45.07
2023-04-09T21:38:40.987Z,44.86
2023-04-09T21:41:08.655Z,44.65
2023-04-09T21:43:38.206Z,45.23
2023-04-09T21:46:05.651Z,45.32
2023-04-09T21:48:33.456Z,45.27
2023-04-09T21:51:01.178Z,45.39
2023-04-09T21:53:30.719Z,45.31
2023-04-09T21:55:58.464Z,45.67
2023-04-09T21:58:26.075Z,45.61
2023-04-09T22:00:53.498Z,45.80
2023-04-09T22:03:21.813Z,46.07
2023-04-09T22:05:49.413Z,46.06
2023-04-09T22:08:16.797Z,46.02
2023-04-09T22:10:44.539Z,46.02
2023-04-09T22:13:11.908Z,46.11
2023-04-09T22:15:39.459Z,46.25
2023-04-09T22:18:07.207Z,46.23
2023-04-09T22:20:35.869Z,47.25
2023-04-09T22:23:03.527Z,46.91
2023-04-09T22:25:34.925Z,47.03
2023-04-09T22:28:02.560Z,47.33
2023-04-09T22:30:30.040Z,47.34
2023-04-09T22:32:57.769Z,47.12
2023-04-09T22:35:25.308Z,47.24
2023-04-09T22:37:52.829Z,46.74
2023-04-09T22:40:20.659Z,47.13
2023-04-09T22:42:48.285Z,47.61
2023-04-09T22:45:15.716Z,47.65
2023-04-09T22:47:43.412Z,47.61
2023-04-09T22:50:11.505Z,47.59
2023-04-09T22:52:38.955Z,49.77
2023-04-09T22:55:09.957Z,49.76
2023-04-09T22:57:38.338Z,49.79
2023-04-09T23:00:06.389Z,48.97
2023-04-09T23:02:34.216Z,48.51
2023-04-09T23:05:02.248Z,48.78
2023-04-09T23:07:29.752Z,48.26
2023-04-09T23:09:57.407Z,48.17
2023-04-09T23:12:24.799Z,48.67
2023-04-09T23:14:53.473Z,48.67
2023-04-09T23:17:22.714Z,49.23
2023-04-09T23:19:52.373Z,49.95
2023-04-09T23:22:19.826Z,50.24
2023-04-09T23:24:47.569Z,49.99
2023-04-09T23:27:15.019Z,49.80
2023-04-09T23:29:42.367Z,49.72
2023-04-09T23:32:10.600Z,49.29
2023-04-09T23:34:37.952Z,49.29
2023-04-09T23:37:05.422Z,48.61
2023-04-09T23:39:33.112Z,48.76
2023-04-09T23:42:00.685Z,48.81
2023-04-09T23:44:28.042Z,49.41
2023-04-09T23:46:55.745Z,49.36
2023-04-09T23:49:23.246Z,48.87
2023-04-09T23:51:53.840Z,48.57
2023-04-09T23:54:21.996Z,48.31
2023-04-09T23:56:49.421Z,49.72
2023-04-09T23:59:16.783Z,49.59
